createdAt,value
2023-11-30T05:15:14.936Z,99.99
2023-11-30T05:16:14.899Z,99.99
2023-11-30T05:17:14.924Z,99.99
2023-11-30T05:18:14.953Z,99.99
2023-11-30T05:19:14.865Z,99.99
2023-11-30T05:20:14.873Z,99.99
2023-11-30T05:21:14.871Z,99.99
2023-11-30T05:22:14.816Z,99.99
2023-11-30T05:23:14.797Z,99.99
2023-11-30T05:24:14.825Z,99.99
2023-11-30T05:25:14.804Z,99.99
2023-11-30T05:26:14.792Z,99.99
2023-11-30T05:27:14.782Z,99.99
2023-11-30T05:28:14.755Z,99.99
2023-11-30T05:29:14.732Z,99.99
2023-11-30T05:30:14.821Z,99.99
2023-11-30T05:31:14.722Z,99.99
2023-11-30T05:32:14.689Z,99.99
2023-11-30T05:33:14.742Z,99.99
2023-11-30T05:34:14.659Z,99.99
2023-11-30T05:35:14.679Z,99.99
2023-11-30T05:36:14.655Z,99.99
2023-11-30T05:37:14.628Z,99.99
2023-11-30T05:38:14.612Z,99.99
2023-11-30T05:39:14.634Z,99.99
2023-11-30T05:40:14.602Z,99.99
2023-11-30T05:41:14.574Z,99.99
2023-11-30T05:42:14.589Z,99.99
2023-11-30T05:43:14.563Z,99.99
2023-11-30T05:44:14.550Z,99.99
2023-11-30T05:45:14.577Z,99.99
2023-11-30T05:46:14.542Z,99.99
2023-11-30T05:47:14.493Z,99.99
2023-11-30T05:48:14.570Z,99.99
2023-11-30T05:49:14.559Z,99.99
2023-11-30T05:50:14.458Z,99.99
2023-11-30T05:51:14.527Z,99.99
2023-11-30T05:52:14.434Z,99.99
2023-11-30T05:53:14.427Z,99.99
2023-11-30T05:54:14.503Z,99.99
2023-11-30T05:55:14.393Z,99.99
2023-11-30T05:56:14.380Z,99.99
2023-11-30T05:57:14.385Z,99.99
2023-11-30T05:58:14.360Z,99.99
2023-11-30T05:59:14.340Z,99.99
2023-11-30T06:00:14.391Z,99.99
2023-11-30T06:01:14.313Z,99.99
2023-11-30T06:02:14.293Z,99.99
2023-11-30T06:03:14.374Z,99.99
2023-11-30T06:04:14.445Z,99.99
2023-11-30T06:05:14.352Z,99.99
2023-11-30T06:06:14.283Z,99.99
2023-11-30T06:07:14.245Z,99.99
2023-11-30T06:08:14.240Z,99.99
2023-11-30T06:09:14.236Z,99.99
2023-11-30T06:10:14.191Z,99.99
2023-11-30T06:11:14.180Z,99.99
2023-11-30T06:12:14.229Z,99.99
2023-11-30T06:13:14.180Z,99.99
2023-11-30T06:14:14.139Z,99.99
2023-11-30T06:15:14.181Z,99.99
2023-11-30T06:16:14.145Z,99.99
2023-11-30T06:17:14.123Z,99.99
2023-11-30T06:18:14.123Z,99.99
2023-11-30T06:19:14.090Z,99.99
2023-11-30T06:20:14.065Z,99.99
2023-11-30T06:21:14.109Z,99.99
2023-11-30T06:22:14.079Z,99.99
2023-11-30T06:23:14.039Z,99.99
2023-11-30T06:24:14.058Z,99.13
2023-11-30T06:25:13.998Z,99.49
2023-11-30T06:26:14.015Z,99.82
2023-11-30T06:27:13.995Z,99.19
2023-11-30T06:28:13.964Z,98.73
2023-11-30T06:29:13.946Z,97.12
2023-11-30T06:30:13.982Z,96.75
2023-11-30T06:31:13.967Z,96.85
2023-11-30T06:32:13.913Z,96.27
2023-11-30T06:33:13.984Z,96.62
2023-11-30T06:34:13.923Z,97.04
2023-11-30T06:35:13.876Z,97.40
2023-11-30T06:36:13.900Z,97.81
2023-11-30T06:37:13.848Z,97.75
2023-11-30T06:38:13.853Z,97.59
2023-11-30T06:39:13.847Z,97.78
2023-11-30T06:40:13.854Z,98.56
2023-11-30T06:41:13.862Z,99.29
2023-11-30T06:42:13.809Z,99.96
2023-11-30T06:43:13.767Z,99.99
2023-11-30T06:44:13.768Z,99.99
2023-11-30T06:45:13.801Z,99.99
2023-11-30T06:46:13.733Z,99.99
2023-11-30T06:47:13.718Z,99.99
2023-11-30T06:49:10.771Z,99.99
2023-11-30T06:50:10.793Z,99.99
2023-11-30T06:51:10.820Z,99.99
2023-11-30T06:52:10.780Z,99.99
2023-11-30T06:53:10.726Z,99.99
2023-11-30T06:54:10.766Z,99.99
2023-11-30T06:55:10.706Z,99.99
2023-11-30T06:56:10.662Z,99.99
2023-11-30T06:57:10.675Z,99.99
2023-11-30T06:58:10.637Z,99.99
2023-11-30T06:59:10.637Z,99.99
2023-11-30T07:00:10.639Z,99.99
2023-11-30T07:01:10.606Z,99.99
2023-11-30T07:02:10.636Z,99.99
2023-11-30T07:03:10.765Z,99.99
2023-11-30T07:04:10.714Z,99.99
2023-11-30T07:05:10.582Z,99.99
2023-11-30T07:06:10.723Z,99.99
2023-11-30T07:07:17.266Z,99.99
2023-11-30T07:08:11.525Z,99.99
2023-11-30T07:09:10.544Z,99.99
2023-11-30T07:10:10.495Z,99.99
2023-11-30T07:11:10.485Z,99.99
2023-11-30T07:12:10.948Z,99.99
2023-11-30T07:13:10.493Z,99.99
2023-11-30T07:14:10.428Z,99.99
2023-11-30T07:15:10.456Z,99.99
2023-11-30T07:16:10.426Z,99.99
2023-11-30T07:17:10.396Z,99.99
2023-11-30T07:18:10.662Z,99.99
2023-11-30T07:19:10.380Z,99.99
2023-11-30T07:20:10.351Z,99.99
2023-11-30T07:21:10.360Z,99.99
2023-11-30T07:22:10.346Z,99.99
2023-11-30T07:23:10.333Z,99.99
2023-11-30T07:24:12.365Z,99.99
2023-11-30T07:25:10.295Z,99.99
2023-11-30T07:26:10.272Z,99.99
2023-11-30T07:27:10.293Z,99.99
2023-11-30T07:28:10.250Z,99.99
2023-11-30T07:29:10.239Z,99.99
2023-11-30T07:30:10.346Z,99.99
2023-11-30T07:31:10.254Z,99.99
2023-11-30T07:32:10.211Z,99.99
2023-11-30T07:33:10.277Z,99.99
2023-11-30T07:34:10.167Z,99.99
2023-11-30T07:35:10.171Z,99.99
2023-11-30T07:36:12.390Z,99.99
2023-11-30T07:37:10.150Z,99.99
2023-11-30T07:38:10.125Z,99.99
2023-11-30T07:39:10.212Z,99.99
2023-11-30T07:40:10.108Z,99.99
2023-11-30T07:41:10.113Z,99.99
2023-11-30T07:42:10.118Z,99.99
2023-11-30T07:43:10.094Z,99.99
2023-11-30T07:44:10.058Z,99.99
2023-11-30T07:45:10.062Z,99.99
2023-11-30T07:46:10.051Z,99.99
2023-11-30T07:47:10.019Z,99.99
2023-11-30T07:48:10.104Z,99.99
2023-11-30T07:49:09.986Z,99.99
2023-11-30T07:50:09.973Z,99.99
2023-11-30T07:51:09.993Z,99.99
2023-11-30T07:52:09.943Z,99.99
2023-11-30T07:53:09.941Z,99.99
2023-11-30T07:54:09.944Z,99.99
2023-11-30T07:55:09.918Z,99.99
2023-11-30T07:56:09.887Z,99.99
2023-11-30T07:57:09.890Z,99.99
2023-11-30T07:58:09.880Z,99.99
2023-11-30T07:59:09.864Z,99.99
2023-11-30T08:00:09.926Z,99.99
2023-11-30T08:01:09.840Z,99.99
2023-11-30T08:02:09.809Z,99.99
2023-11-30T08:03:09.857Z,99.99
2023-11-30T08:04:09.913Z,99.99
2023-11-30T08:05:09.787Z,99.99
2023-11-30T08:06:09.816Z,99.99
2023-11-30T08:07:09.762Z,99.99
2023-11-30T08:08:09.740Z,99.99
2023-11-30T08:09:09.779Z,99.99
2023-11-30T08:10:09.713Z,99.99
2023-11-30T08:11:09.724Z,99.99
2023-11-30T08:12:09.728Z,99.99
2023-11-30T08:13:09.675Z,99.99
2023-11-30T08:14:09.668Z,99.99
2023-11-30T08:15:09.663Z,99.99
2023-11-30T08:16:09.661Z,99.99
2023-11-30T08:17:09.627Z,99.99
2023-11-30T08:18:09.687Z,99.99
2023-11-30T08:19:09.685Z,99.99
2023-11-30T08:20:09.593Z,99.99
2023-11-30T08:21:09.614Z,99.99
2023-11-30T08:22:10.010Z,99.99
2023-11-30T08:23:09.562Z,99.99
2023-11-30T08:24:09.615Z,99.99
2023-11-30T08:25:09.531Z,99.99
2023-11-30T08:26:09.510Z,99.99
2023-11-30T08:27:09.542Z,99.99
2023-11-30T08:28:09.493Z,99.99
2023-11-30T08:29:09.487Z,99.99
2023-11-30T08:30:09.500Z,99.99
2023-11-30T08:31:09.565Z,99.99
2023-11-30T08:32:09.495Z,99.99
2023-11-30T08:33:09.558Z,99.99
2023-11-30T08:34:09.402Z,99.99
2023-11-30T08:35:09.402Z,99.99
2023-11-30T08:36:09.426Z,99.99
2023-11-30T08:37:09.393Z,99.99
2023-11-30T08:38:09.349Z,99.99
2023-11-30T08:39:09.383Z,99.99
2023-11-30T08:40:09.337Z,99.99
2023-11-30T08:41:09.319Z,99.99
2023-11-30T08:42:09.349Z,99.99
2023-11-30T08:43:09.308Z,99.99
2023-11-30T08:44:09.345Z,99.99
2023-11-30T08:45:09.317Z,99.99
2023-11-30T08:46:09.415Z,99.99
2023-11-30T08:47:09.270Z,99.99
2023-11-30T08:48:09.366Z,99.99
2023-11-30T08:49:09.209Z,99.99
2023-11-30T08:50:09.222Z,99.99
2023-11-30T08:51:09.240Z,99.99
2023-11-30T08:52:09.185Z,99.99
2023-11-30T08:53:09.165Z,99.99
2023-11-30T08:54:09.161Z,99.99
2023-11-30T08:55:09.137Z,99.99
2023-11-30T08:56:09.133Z,99.99
2023-11-30T08:57:09.197Z,99.99
2023-11-30T08:58:09.108Z,99.99
2023-11-30T08:59:09.079Z,99.99
2023-11-30T09:00:09.180Z,99.99
2023-11-30T09:01:09.108Z,99.99
2023-11-30T09:02:09.142Z,99.99
2023-11-30T09:03:09.059Z,99.99
2023-11-30T09:04:09.076Z,99.99
2023-11-30T09:05:09.049Z,99.99
2023-11-30T09:06:09.027Z,99.99
2023-11-30T09:07:08.987Z,99.99
2023-11-30T09:08:08.993Z,99.99
2023-11-30T09:09:08.968Z,99.99
2023-11-30T09:10:08.952Z,99.99
2023-11-30T09:11:08.926Z,99.99
2023-11-30T09:12:09.002Z,99.99
2023-11-30T09:13:08.937Z,99.99
2023-11-30T09:14:08.906Z,99.99
2023-11-30T09:15:08.926Z,99.99
2023-11-30T09:16:08.906Z,99.99
2023-11-30T09:17:08.851Z,99.99
2023-11-30T09:18:09.020Z,99.99
2023-11-30T09:19:08.829Z,99.99
2023-11-30T09:20:08.824Z,99.99
2023-11-30T09:21:08.812Z,99.99
2023-11-30T09:22:08.818Z,99.99
2023-11-30T09:23:08.788Z,99.99
2023-11-30T09:24:08.813Z,99.99
2023-11-30T09:25:08.787Z,99.99
2023-11-30T09:26:08.749Z,99.99
2023-11-30T09:27:08.769Z,99.99
2023-11-30T09:28:08.742Z,99.99
2023-11-30T09:29:08.707Z,99.99
2023-11-30T09:30:08.818Z,99.99
2023-11-30T09:31:08.674Z,99.99
2023-11-30T09:32:08.667Z,99.99
2023-11-30T09:33:08.711Z,99.99
2023-11-30T09:34:08.630Z,99.99
2023-11-30T09:35:08.614Z,99.99
2023-11-30T09:36:08.648Z,99.99
2023-11-30T09:37:08.600Z,99.99
2023-11-30T09:38:08.604Z,99.99
2023-11-30T09:39:08.627Z,99.99
2023-11-30T09:40:08.563Z,99.99
2023-11-30T09:41:08.536Z,99.99
2023-11-30T09:42:08.576Z,99.99
2023-11-30T09:43:08.520Z,99.99
2023-11-30T09:44:08.508Z,99.99
2023-11-30T09:45:08.569Z,99.99
2023-11-30T09:46:08.513Z,99.99
2023-11-30T09:47:08.477Z,99.99
2023-11-30T09:48:08.618Z,99.99
2023-11-30T09:49:10.183Z,99.99
2023-11-30T09:50:08.437Z,99.99
2023-11-30T09:51:08.418Z,99.99
2023-11-30T09:52:08.425Z,99.99
2023-11-30T09:53:08.385Z,99.99
2023-11-30T09:54:08.408Z,99.99
2023-11-30T09:55:08.362Z,99.99
2023-11-30T09:56:08.349Z,99.99
2023-11-30T09:57:08.375Z,99.99
2023-11-30T09:58:08.314Z,99.99
2023-11-30T09:59:08.337Z,99.99
2023-11-30T10:00:08.316Z,99.99
2023-11-30T10:01:08.344Z,99.99
2023-11-30T10:02:09.154Z,99.99
2023-11-30T10:03:08.315Z,99.99
2023-11-30T10:04:08.273Z,99.99
2023-11-30T10:05:08.256Z,99.99
2023-11-30T10:06:08.256Z,99.99
2023-11-30T10:07:08.194Z,99.99
2023-11-30T10:08:08.187Z,99.99
2023-11-30T10:09:08.185Z,99.99
2023-11-30T10:10:08.166Z,99.99
2023-11-30T10:11:08.160Z,99.99
2023-11-30T10:12:08.190Z,99.99
2023-11-30T10:13:08.129Z,99.99
2023-11-30T10:14:08.131Z,99.99
2023-11-30T10:15:08.147Z,99.99
2023-11-30T10:16:08.251Z,99.99
2023-11-30T10:17:08.152Z,99.99
2023-11-30T10:18:08.233Z,99.99
2023-11-30T10:19:08.741Z,99.99
2023-11-30T10:20:08.065Z,99.99
2023-11-30T10:21:08.042Z,99.99
2023-11-30T10:22:08.018Z,99.99
2023-11-30T10:23:07.988Z,99.99
2023-11-30T10:24:08.017Z,99.99
2023-11-30T10:25:07.976Z,99.99
2023-11-30T10:26:07.945Z,99.99
2023-11-30T10:27:07.955Z,99.99
2023-11-30T10:28:07.923Z,99.99
2023-11-30T10:29:08.155Z,99.99
2023-11-30T10:30:08.066Z,99.99
2023-11-30T10:31:07.894Z,99.99
2023-11-30T10:32:07.867Z,99.99
2023-11-30T10:33:07.956Z,99.99
2023-11-30T10:34:08.007Z,99.99
2023-11-30T10:35:07.931Z,99.99
2023-11-30T10:36:07.839Z,99.99
2023-11-30T10:37:07.842Z,99.99
2023-11-30T10:38:07.810Z,99.99
2023-11-30T10:39:07.905Z,99.99
2023-11-30T10:40:07.760Z,99.99
2023-11-30T10:41:07.751Z,99.99
2023-11-30T10:42:07.761Z,99.99
2023-11-30T10:43:07.742Z,99.99
2023-11-30T10:44:07.719Z,99.99
2023-11-30T10:45:07.935Z,99.99
2023-11-30T10:46:07.682Z,99.99
2023-11-30T10:47:07.704Z,99.99
2023-11-30T10:48:07.789Z,99.99
2023-11-30T10:49:07.646Z,99.99
2023-11-30T10:50:07.674Z,99.99
2023-11-30T10:51:07.671Z,99.99
2023-11-30T10:52:07.608Z,99.99
2023-11-30T10:53:07.607Z,99.99
2023-11-30T10:54:07.609Z,99.99
2023-11-30T10:55:07.596Z,99.99
2023-11-30T10:56:07.578Z,99.99
2023-11-30T10:57:07.603Z,99.99
2023-11-30T10:58:07.575Z,99.99
2023-11-30T10:59:07.519Z,99.99
2023-11-30T11:00:07.520Z,99.99
2023-11-30T11:01:07.582Z,99.99
2023-11-30T11:02:07.535Z,99.99
2023-11-30T11:03:07.577Z,99.99
2023-11-30T11:04:07.632Z,99.99
2023-11-30T11:05:07.456Z,99.99
2023-11-30T11:06:07.429Z,99.99
2023-11-30T11:07:07.446Z,99.99
2023-11-30T11:08:07.403Z,99.99
2023-11-30T11:09:07.471Z,99.99
2023-11-30T11:10:07.429Z,99.99
2023-11-30T11:11:07.384Z,99.99
2023-11-30T11:12:07.434Z,99.99
2023-11-30T11:13:07.387Z,99.99
2023-11-30T11:14:07.330Z,99.99
2023-11-30T11:15:07.346Z,99.99
2023-11-30T11:16:07.380Z,99.99
2023-11-30T11:17:07.318Z,99.99
2023-11-30T11:18:07.390Z,99.99
2023-11-30T11:19:07.272Z,99.99
2023-11-30T11:20:07.261Z,99.99
2023-11-30T11:21:07.278Z,99.99
2023-11-30T11:22:07.221Z,99.99
2023-11-30T11:23:07.239Z,99.99
2023-11-30T11:24:07.256Z,99.99
2023-11-30T11:25:07.203Z,99.99
2023-11-30T11:26:07.198Z,99.99
2023-11-30T11:27:07.189Z,99.99
2023-11-30T11:28:07.171Z,99.99
2023-11-30T11:29:07.149Z,99.99
2023-11-30T11:30:07.180Z,99.99
2023-11-30T11:31:07.151Z,99.99
2023-11-30T11:32:07.097Z,99.99
2023-11-30T11:33:07.214Z,99.99
2023-11-30T11:34:07.093Z,99.99
2023-11-30T11:35:07.085Z,99.99
2023-11-30T11:36:07.129Z,99.99
2023-11-30T11:37:07.035Z,99.99
2023-11-30T11:38:07.038Z,99.99
2023-11-30T11:39:07.053Z,99.99
2023-11-30T11:40:07.027Z,99.99
2023-11-30T11:41:06.990Z,99.99
2023-11-30T11:42:06.978Z,99.99
2023-11-30T11:43:06.984Z,99.99
2023-11-30T11:44:06.952Z,99.99
2023-11-30T11:45:07.054Z,99.99
2023-11-30T11:46:07.099Z,99.99
2023-11-30T11:47:06.910Z,99.99
2023-11-30T11:48:07.048Z,99.74
2023-11-30T11:49:06.909Z,99.54
2023-11-30T11:50:06.874Z,99.38
2023-11-30T11:51:06.962Z,99.13
2023-11-30T11:52:06.858Z,99.19
2023-11-30T11:53:06.860Z,98.88
2023-11-30T11:54:06.886Z,98.32
2023-11-30T11:55:06.818Z,97.45
2023-11-30T11:56:06.811Z,94.89
2023-11-30T11:57:06.783Z,91.50
2023-11-30T11:58:06.773Z,88.26
2023-11-30T11:59:06.767Z,86.44
2023-11-30T12:00:06.787Z,86.03
2023-11-30T12:01:06.788Z,86.05
2023-11-30T12:02:06.773Z,88.20
2023-11-30T12:03:06.765Z,90.06
2023-11-30T12:04:06.743Z,89.79
2023-11-30T12:05:06.697Z,87.74
2023-11-30T12:06:06.663Z,85.41
2023-11-30T12:07:06.684Z,86.05
2023-11-30T12:08:06.649Z,87.78
2023-11-30T12:09:06.622Z,89.38
2023-11-30T12:10:06.601Z,89.89
2023-11-30T12:11:06.598Z,90.25
2023-11-30T12:12:06.588Z,91.22
2023-11-30T12:13:06.563Z,92.16
2023-11-30T12:14:06.566Z,92.88
2023-11-30T12:15:06.541Z,92.98
2023-11-30T12:16:06.595Z,93.65
2023-11-30T12:17:06.528Z,94.84
2023-11-30T12:18:06.580Z,96.23
2023-11-30T12:19:06.493Z,96.79
2023-11-30T12:20:06.479Z,97.56
2023-11-30T12:21:06.484Z,98.54
2023-11-30T12:22:06.458Z,99.32
2023-11-30T12:23:06.435Z,99.99
2023-11-30T12:24:06.410Z,99.99
2023-11-30T12:25:06.436Z,99.99
2023-11-30T12:26:06.405Z,99.99
2023-11-30T12:27:06.400Z,99.99
2023-11-30T12:28:06.369Z,99.99
2023-11-30T12:29:06.353Z,99.99
2023-11-30T12:30:06.348Z,99.99
2023-11-30T12:31:06.343Z,99.99
2023-11-30T12:32:06.444Z,99.99
2023-11-30T12:33:06.539Z,99.99
2023-11-30T12:34:06.318Z,99.99
2023-11-30T12:35:06.328Z,99.99
2023-11-30T12:36:06.306Z,99.99
2023-11-30T12:37:06.247Z,99.99
2023-11-30T12:38:06.228Z,99.99
2023-11-30T12:39:06.259Z,99.99
2023-11-30T12:40:06.216Z,99.99
2023-11-30T12:41:06.195Z,99.99
2023-11-30T12:42:06.731Z,99.99
2023-11-30T12:43:06.172Z,99.99
2023-11-30T12:44:06.528Z,99.99
2023-11-30T12:45:06.218Z,99.99
2023-11-30T12:46:06.163Z,99.99
2023-11-30T12:47:06.119Z,99.99
2023-11-30T12:48:06.133Z,99.99
2023-11-30T12:49:06.122Z,99.99
2023-11-30T12:50:06.184Z,99.99
2023-11-30T12:51:06.070Z,99.99
2023-11-30T12:52:06.061Z,99.99
2023-11-30T12:53:06.036Z,99.99
2023-11-30T12:54:06.037Z,99.99
2023-11-30T12:55:06.492Z,99.99
2023-11-30T12:56:05.991Z,99.99
2023-11-30T12:57:05.989Z,99.99
2023-11-30T12:58:05.977Z,99.99
2023-11-30T12:59:05.987Z,99.80
2023-11-30T13:00:05.955Z,99.44
2023-11-30T13:01:05.939Z,98.76
2023-11-30T13:02:06.007Z,98.55
2023-11-30T13:03:05.922Z,98.60
2023-11-30T13:04:06.014Z,98.50
2023-11-30T13:05:05.891Z,98.75
2023-11-30T13:06:05.867Z,99.16
2023-11-30T13:07:05.865Z,99.48
2023-11-30T13:08:05.852Z,99.68
2023-11-30T13:09:05.839Z,99.58
2023-11-30T13:10:05.841Z,99.68
2023-11-30T13:11:05.802Z,99.90
2023-11-30T13:12:05.811Z,99.85
2023-11-30T13:13:05.802Z,99.64
2023-11-30T13:14:05.760Z,99.43
2023-11-30T13:15:05.750Z,99.12
2023-11-30T13:16:05.740Z,99.12
2023-11-30T13:17:05.750Z,99.12
2023-11-30T13:18:05.770Z,98.91
2023-11-30T13:19:05.912Z,98.91
2023-11-30T13:20:05.699Z,98.60
2023-11-30T13:21:05.675Z,98.55
2023-11-30T13:22:05.679Z,98.24
2023-11-30T13:23:05.666Z,97.89
2023-11-30T13:24:05.629Z,97.78
2023-11-30T13:25:05.632Z,97.37
2023-11-30T13:26:05.599Z,96.95
2023-11-30T13:27:05.628Z,96.85
2023-11-30T13:28:05.597Z,96.54
2023-11-30T13:29:05.576Z,96.54
2023-11-30T13:30:05.554Z,96.33
2023-11-30T13:31:05.633Z,96.23
2023-11-30T13:32:05.541Z,96.12
2023-11-30T13:33:05.677Z,95.81
2023-11-30T13:34:05.516Z,95.92
2023-11-30T13:35:05.489Z,96.02
2023-11-30T13:36:05.482Z,96.06
2023-11-30T13:37:05.476Z,96.06
2023-11-30T13:38:05.445Z,96.12
2023-11-30T13:39:05.443Z,96.02
2023-11-30T13:40:05.424Z,95.87
2023-11-30T13:41:05.432Z,95.36
2023-11-30T13:42:05.396Z,95.04
2023-11-30T13:43:05.398Z,94.63
2023-11-30T13:44:05.407Z,94.32
2023-11-30T13:45:05.364Z,94.11
2023-11-30T13:46:05.362Z,94.01
2023-11-30T13:47:05.333Z,94.11
2023-11-30T13:48:05.329Z,94.15
2023-11-30T13:49:05.302Z,94.46
2023-11-30T13:50:12.468Z,95.19
2023-11-30T13:51:06.299Z,95.61
2023-11-30T13:52:05.259Z,95.61
2023-11-30T13:53:05.275Z,95.61
2023-11-30T13:54:05.236Z,95.77
2023-11-30T13:55:05.241Z,95.56
2023-11-30T13:56:05.225Z,95.46
2023-11-30T13:57:05.205Z,95.46
2023-11-30T13:58:05.205Z,95.25
2023-11-30T13:59:05.174Z,95.29
2023-11-30T14:00:05.166Z,95.50
2023-11-30T14:01:05.267Z,95.71
2023-11-30T14:02:05.166Z,95.75
2023-11-30T14:03:05.152Z,95.86
2023-11-30T14:04:05.243Z,95.86
2023-11-30T14:05:05.100Z,95.96
2023-11-30T14:06:05.185Z,96.21
2023-11-30T14:07:05.084Z,96.31
2023-11-30T14:08:05.055Z,96.31
2023-11-30T14:09:05.249Z,96.52
2023-11-30T14:10:05.117Z,96.88
2023-11-30T14:11:05.012Z,97.19
2023-11-30T14:12:04.999Z,97.40
2023-11-30T14:13:05.003Z,97.61
2023-11-30T14:14:04.993Z,97.92
2023-11-30T14:15:05.020Z,98.02
2023-11-30T14:16:04.988Z,97.92
2023-11-30T14:17:05.031Z,98.02
2023-11-30T14:18:04.960Z,98.07
2023-11-30T14:19:04.945Z,98.17
2023-11-30T14:20:04.897Z,98.27
2023-11-30T14:21:04.921Z,98.69
2023-11-30T14:22:04.888Z,99.11
2023-11-30T14:23:04.922Z,99.32
2023-11-30T14:24:04.841Z,99.32
2023-11-30T14:25:04.835Z,99.42
2023-11-30T14:26:04.836Z,99.73
2023-11-30T14:27:04.861Z,99.94
2023-11-30T14:28:10.929Z,99.94
2023-11-30T14:29:05.782Z,99.99
2023-11-30T14:30:04.845Z,99.99
2023-11-30T14:31:04.961Z,99.99
2023-11-30T14:32:04.856Z,99.99
2023-11-30T14:33:04.794Z,99.99
2023-11-30T14:34:05.011Z,99.99
2023-11-30T14:35:04.703Z,99.99
2023-11-30T14:36:04.683Z,99.99
2023-11-30T14:37:04.702Z,99.99
2023-11-30T14:38:04.655Z,99.99
2023-11-30T14:39:04.660Z,99.99
2023-11-30T14:40:04.631Z,99.99
2023-11-30T14:41:04.630Z,99.99
2023-11-30T14:42:04.624Z,99.99
2023-11-30T14:43:04.608Z,99.99
2023-11-30T14:44:04.604Z,99.99
2023-11-30T14:45:04.580Z,99.99
2023-11-30T14:46:04.658Z,99.99
2023-11-30T14:47:04.673Z,99.99
2023-11-30T14:48:04.571Z,99.99
2023-11-30T14:49:04.579Z,99.99
2023-11-30T14:50:04.505Z,99.99
2023-11-30T14:51:04.514Z,99.99
2023-11-30T14:52:04.475Z,99.99
2023-11-30T14:53:04.471Z,99.99
2023-11-30T14:54:04.447Z,99.99
2023-11-30T14:55:04.441Z,99.99
2023-11-30T14:56:04.444Z,99.99
2023-11-30T14:57:06.135Z,99.99
2023-11-30T14:58:04.398Z,99.99
2023-11-30T14:59:04.388Z,99.99
2023-11-30T15:00:04.383Z,99.99
2023-11-30T15:01:04.469Z,99.99
2023-11-30T15:02:04.437Z,99.99
2023-11-30T15:03:04.352Z,99.99
2023-11-30T15:04:04.377Z,99.99
2023-11-30T15:05:04.333Z,99.99
2023-11-30T15:06:04.301Z,99.99
2023-11-30T15:07:04.312Z,99.99
2023-11-30T15:08:04.315Z,99.99
2023-11-30T15:09:04.269Z,99.99
2023-11-30T15:10:04.270Z,99.99
2023-11-30T15:11:04.275Z,99.99
2023-11-30T15:12:04.274Z,99.99
2023-11-30T15:13:04.220Z,99.99
2023-11-30T15:14:04.482Z,99.99
2023-11-30T15:15:04.226Z,99.99
2023-11-30T15:16:04.260Z,99.99
2023-11-30T15:17:04.164Z,99.99
2023-11-30T15:18:04.182Z,99.99
2023-11-30T15:19:04.194Z,99.99
2023-11-30T15:20:04.125Z,99.99
2023-11-30T15:21:04.109Z,99.99
2023-11-30T15:22:04.091Z,99.99
2023-11-30T15:23:04.077Z,99.99
2023-11-30T15:24:04.097Z,99.99
2023-11-30T15:25:04.078Z,99.99
2023-11-30T15:26:04.039Z,99.99
2023-11-30T15:27:04.036Z,99.99
2023-11-30T15:28:04.020Z,99.99
2023-11-30T15:29:04.019Z,99.99
2023-11-30T15:30:03.983Z,99.99
2023-11-30T15:31:04.003Z,99.99
2023-11-30T15:32:03.955Z,99.99
2023-11-30T15:33:03.981Z,99.99
2023-11-30T15:34:04.089Z,99.99
2023-11-30T15:35:03.990Z,99.99
2023-11-30T15:36:03.906Z,99.99
2023-11-30T15:37:03.897Z,99.99
2023-11-30T15:38:03.894Z,99.99
2023-11-30T15:39:03.872Z,99.99
2023-11-30T15:40:03.860Z,99.99
2023-11-30T15:41:03.840Z,99.99
2023-11-30T15:42:03.839Z,99.99
2023-11-30T15:43:03.889Z,99.99
2023-11-30T15:44:03.801Z,99.99
2023-11-30T15:45:03.811Z,99.99
2023-11-30T15:46:03.870Z,99.99
2023-11-30T15:47:03.935Z,99.99
2023-11-30T15:48:03.822Z,99.99
2023-11-30T15:49:03.759Z,99.99
2023-11-30T15:50:03.722Z,99.99
2023-11-30T15:51:03.713Z,99.99
2023-11-30T15:52:03.716Z,99.99
2023-11-30T15:53:03.693Z,99.99
2023-11-30T15:54:03.668Z,99.99
2023-11-30T15:55:10.722Z,99.99
2023-11-30T15:56:03.664Z,99.99
2023-11-30T15:57:03.709Z,99.99
2023-11-30T15:58:03.624Z,99.99
2023-11-30T15:59:03.599Z,99.99
2023-11-30T16:00:03.671Z,99.99
2023-11-30T16:01:03.616Z,99.99
2023-11-30T16:02:03.637Z,99.99
2023-11-30T16:03:03.561Z,99.99
2023-11-30T16:04:03.655Z,99.99
2023-11-30T16:05:03.529Z,99.99
2023-11-30T16:06:03.527Z,99.99
2023-11-30T16:07:03.526Z,99.99
2023-11-30T16:08:03.496Z,99.99
2023-11-30T16:09:03.470Z,99.99
2023-11-30T16:10:03.472Z,99.99
2023-11-30T16:11:03.452Z,99.99
2023-11-30T16:12:03.441Z,99.99
2023-11-30T16:13:03.420Z,99.99
2023-11-30T16:14:03.408Z,99.99
2023-11-30T16:15:03.436Z,99.99
2023-11-30T16:16:03.418Z,99.99
2023-11-30T16:17:03.360Z,99.99
2023-11-30T16:18:03.415Z,99.99
2023-11-30T16:19:03.345Z,99.99
2023-11-30T16:20:03.355Z,99.99
2023-11-30T16:21:03.310Z,99.99
2023-11-30T16:22:03.370Z,99.99
2023-11-30T16:23:03.287Z,99.99
2023-11-30T16:24:03.408Z,99.99
2023-11-30T16:25:03.480Z,99.99
2023-11-30T16:26:03.253Z,99.99
2023-11-30T16:27:03.246Z,99.99
2023-11-30T16:28:03.296Z,99.99
2023-11-30T16:29:03.225Z,99.99
2023-11-30T16:30:03.199Z,99.99
2023-11-30T16:31:03.229Z,99.99
2023-11-30T16:32:03.218Z,99.99
2023-11-30T16:33:03.192Z,99.99
2023-11-30T16:34:03.196Z,99.99
2023-11-30T16:35:03.133Z,99.99
2023-11-30T16:36:03.159Z,99.99
2023-11-30T16:37:03.131Z,99.99
2023-11-30T16:38:03.126Z,99.99
2023-11-30T16:39:03.102Z,99.99
2023-11-30T16:40:03.146Z,99.99
2023-11-30T16:41:03.064Z,99.99
2023-11-30T16:42:03.041Z,99.99
2023-11-30T16:43:03.038Z,99.99
2023-11-30T16:44:03.023Z,99.99
2023-11-30T16:45:03.079Z,99.99
2023-11-30T16:46:03.123Z,99.99
2023-11-30T16:47:03.011Z,99.99
2023-11-30T16:48:03.019Z,99.99
2023-11-30T16:49:02.969Z,99.99
2023-11-30T16:50:02.955Z,99.99
2023-11-30T16:51:02.929Z,99.99
2023-11-30T16:52:02.961Z,99.99
2023-11-30T16:53:02.926Z,99.99
2023-11-30T16:54:02.899Z,99.99
2023-11-30T16:55:03.124Z,99.99
2023-11-30T16:56:02.873Z,99.99
2023-11-30T16:57:02.875Z,99.99
2023-11-30T16:58:02.858Z,99.99
2023-11-30T16:59:02.834Z,99.99
2023-11-30T17:00:02.817Z,99.99
2023-11-30T17:01:02.797Z,99.99
2023-11-30T17:02:02.920Z,99.99
2023-11-30T17:03:02.838Z,99.99
2023-11-30T17:04:02.854Z,99.99
2023-11-30T17:05:02.761Z,99.99
2023-11-30T17:06:02.755Z,99.99
2023-11-30T17:07:02.795Z,99.99
2023-11-30T17:08:02.714Z,99.99
2023-11-30T17:09:02.712Z,99.99
2023-11-30T17:10:02.725Z,99.99
2023-11-30T17:11:02.689Z,99.99
2023-11-30T17:12:02.669Z,99.99
2023-11-30T17:13:02.712Z,99.99
2023-11-30T17:14:02.632Z,99.99
2023-11-30T17:15:02.628Z,99.99
2023-11-30T17:16:04.122Z,99.99
2023-11-30T17:17:05.351Z,99.99
2023-11-30T17:18:02.626Z,99.99
2023-11-30T17:19:02.578Z,99.99
2023-11-30T17:20:02.583Z,99.99
2023-11-30T17:21:02.549Z,99.99
2023-11-30T17:22:02.551Z,99.99
2023-11-30T17:23:02.522Z,99.99
2023-11-30T17:24:02.502Z,99.99
2023-11-30T17:25:02.605Z,99.99
2023-11-30T17:26:02.481Z,99.99
2023-11-30T17:27:02.468Z,99.99
2023-11-30T17:28:02.516Z,99.99
2023-11-30T17:29:02.440Z,99.99
2023-11-30T17:30:02.445Z,99.99
2023-11-30T17:31:02.438Z,99.99
2023-11-30T17:32:02.401Z,99.99
2023-11-30T17:33:02.610Z,99.99
2023-11-30T17:34:02.606Z,99.99
2023-11-30T17:35:02.591Z,99.99
2023-11-30T17:36:02.350Z,99.99
2023-11-30T17:37:02.328Z,99.99
2023-11-30T17:38:02.316Z,99.99
2023-11-30T17:39:02.320Z,99.99
2023-11-30T17:40:02.295Z,99.99
2023-11-30T17:41:02.348Z,99.99
2023-11-30T17:42:02.274Z,99.99
2023-11-30T17:43:02.260Z,99.99
2023-11-30T17:44:02.249Z,99.99
2023-11-30T17:45:02.263Z,99.99
2023-11-30T17:46:02.218Z,99.99
2023-11-30T17:47:02.204Z,99.99
2023-11-30T17:48:02.215Z,99.99
2023-11-30T17:49:02.191Z,99.99
2023-11-30T17:50:04.424Z,99.99
2023-11-30T17:51:02.150Z,99.99
2023-11-30T17:52:02.180Z,99.99
2023-11-30T17:53:02.135Z,99.99
2023-11-30T17:54:02.137Z,99.99
2023-11-30T17:55:02.144Z,99.99
2023-11-30T17:56:02.132Z,99.99
2023-11-30T17:57:02.081Z,99.99
2023-11-30T17:58:02.066Z,99.99
2023-11-30T17:59:02.058Z,99.99
2023-11-30T18:00:02.035Z,99.99
2023-11-30T18:01:02.055Z,99.99
2023-11-30T18:02:02.058Z,99.99
2023-11-30T18:03:02.036Z,99.99
2023-11-30T18:04:02.124Z,99.99
2023-11-30T18:05:01.993Z,99.99
2023-11-30T18:06:01.976Z,99.99
2023-11-30T18:07:01.956Z,99.99
2023-11-30T18:08:01.959Z,99.99